sensor_id;sensor_type;location;lat;lon;timestamp;pressure;altitude;pressure_sealevel;temperature;humidity
6395;BME280;3230;42.588;23.358;2023-03-23T00:01:01;90957.84;;;3.35;100.00
6395;BME280;3230;42.588;23.358;2023-03-23T00:03:27;90950.44;;;3.27;100.00
6395;BME280;3230;42.588;23.358;2023-03-23T00:05:55;90948.88;;;3.26;100.00
6395;BME280;3230;42.588;23.358;2023-03-23T00:08:25;90943.78;;;3.31;100.00
6395;BME280;3230;42.588;23.358;2023-03-23T00:10:51;90947.94;;;3.32;100.00
6395;BME280;3230;42.588;23.358;2023-03-23T00:13:18;90939.72;;;3.35;100.00
6395;BME280;3230;42.588;23.358;2023-03-23T00:15:46;90943.88;;;3.36;100.00
6395;BME280;3230;42.588;23.358;2023-03-23T00:18:15;90939.41;;;3.31;100.00
6395;BME280;3230;42.588;23.358;2023-03-23T00:20:56;90948.09;;;3.25;100.00
6395;BME280;3230;42.588;23.358;2023-03-23T00:23:25;90951.69;;;3.24;100.00
6395;BME280;3230;42.588;23.358;2023-03-23T00:25:55;90954.13;;;3.31;100.00
6395;BME280;3230;42.588;23.358;2023-03-23T00:28:25;90952.47;;;3.25;100.00
6395;BME280;3230;42.588;23.358;2023-03-23T00:31:03;90958.22;;;3.27;100.00
6395;BME280;3230;42.588;23.358;2023-03-23T00:33:31;90953.72;;;3.22;100.00
6395;BME280;3230;42.588;23.358;2023-03-23T00:36:13;90956.16;;;3.29;100.00
6395;BME280;3230;42.588;23.358;2023-03-23T00:38:40;90961.91;;;3.31;100.00
6395;BME280;3230;42.588;23.358;2023-03-23T00:41:07;90956.16;;;3.29;100.00
6395;BME280;3230;42.588;23.358;2023-03-23T00:43:33;90954.69;;;3.33;100.00
6395;BME280;3230;42.588;23.358;2023-03-23T00:46:03;90959.72;;;3.40;100.00
6395;BME280;3230;42.588;23.358;2023-03-23T00:48:34;90958.81;;;3.46;100.00
6395;BME280;3230;42.588;23.358;2023-03-23T00:51:01;90961.03;;;3.54;100.00
6395;BME280;3230;42.588;23.358;2023-03-23T00:53:32;90959.56;;;3.58;100.00
6395;BME280;3230;42.588;23.358;2023-03-23T00:55:57;90962.00;;;3.65;100.00
6395;BME280;3230;42.588;23.358;2023-03-23T00:58:22;90970.56;;;3.65;100.00
6395;BME280;3230;42.588;23.358;2023-03-23T01:00:48;90975.50;;;3.67;100.00
6395;BME280;3230;42.588;23.358;2023-03-23T01:03:13;90969.47;;;3.78;100.00
6395;BME280;3230;42.588;23.358;2023-03-23T01:05:44;90967.53;;;3.86;100.00
6395;BME280;3230;42.588;23.358;2023-03-23T01:08:13;90973.28;;;3.88;100.00
6395;BME280;3230;42.588;23.358;2023-03-23T01:10:38;90972.88;;;3.96;100.00
6395;BME280;3230;42.588;23.358;2023-03-23T01:13:06;90966.78;;;4.02;100.00
6395;BME280;3230;42.588;23.358;2023-03-23T01:15:31;90959.63;;;4.09;100.00
6395;BME280;3230;42.588;23.358;2023-03-23T01:17:57;90967.72;;;4.13;100.00
6395;BME280;3230;42.588;23.358;2023-03-23T01:20:24;90957.03;;;4.09;100.00
6395;BME280;3230;42.588;23.358;2023-03-23T01:22:51;90963.06;;;4.15;100.00
6395;BME280;3230;42.588;23.358;2023-03-23T01:25:18;90966.47;;;4.15;100.00
6395;BME280;3230;42.588;23.358;2023-03-23T01:27:44;90967.16;;;4.11;100.00
6395;BME280;3230;42.588;23.358;2023-03-23T01:30:11;90970.44;;;4.06;100.00
6395;BME280;3230;42.588;23.358;2023-03-23T01:32:38;90965.03;;;4.08;100.00
6395;BME280;3230;42.588;23.358;2023-03-23T01:35:04;90974.38;;;4.09;100.00
6395;BME280;3230;42.588;23.358;2023-03-23T01:37:30;90972.16;;;4.00;100.00
6395;BME280;3230;42.588;23.358;2023-03-23T01:39:56;90973.66;;;3.96;100.00
6395;BME280;3230;42.588;23.358;2023-03-23T01:42:29;90969.34;;;4.02;100.00
6395;BME280;3230;42.588;23.358;2023-03-23T01:47:21;90961.16;;;4.10;100.00
6395;BME280;3230;42.588;23.358;2023-03-23T01:49:50;90966.97;;;4.18;100.00
6395;BME280;3230;42.588;23.358;2023-03-23T01:52:19;90963.31;;;4.13;100.00
6395;BME280;3230;42.588;23.358;2023-03-23T01:54:47;90960.25;;;4.16;100.00
6395;BME280;3230;42.588;23.358;2023-03-23T01:57:15;90957.94;;;4.20;100.00
6395;BME280;3230;42.588;23.358;2023-03-23T01:59:43;90953.56;;;4.21;100.00
6395;BME280;3230;42.588;23.358;2023-03-23T02:02:11;90952.22;;;4.18;100.00
6395;BME280;3230;42.588;23.358;2023-03-23T02:04:37;90954.56;;;4.20;100.00
6395;BME280;3230;42.588;23.358;2023-03-23T02:07:03;90953.06;;;4.24;100.00
6395;BME280;3230;42.588;23.358;2023-03-23T02:09:29;90955.59;;;4.19;100.00
6395;BME280;3230;42.588;23.358;2023-03-23T02:11:55;90953.69;;;4.14;100.00
6395;BME280;3230;42.588;23.358;2023-03-23T02:14:23;90952.47;;;4.16;100.00
6395;BME280;3230;42.588;23.358;2023-03-23T02:22:57;90953.38;;;4.10;100.00
6395;BME280;3230;42.588;23.358;2023-03-23T02:31:13;90968.88;;;4.22;100.00
6395;BME280;3230;42.588;23.358;2023-03-23T02:34:02;90969.44;;;4.24;100.00
6395;BME280;3230;42.588;23.358;2023-03-23T02:36:39;90965.28;;;4.23;100.00
6395;BME280;3230;42.588;23.358;2023-03-23T02:39:33;90964.50;;;4.23;100.00
6395;BME280;3230;42.588;23.358;2023-03-23T02:42:09;90964.72;;;4.21;100.00
6395;BME280;3230;42.588;23.358;2023-03-23T02:44:37;90967.41;;;4.26;100.00
6395;BME280;3230;42.588;23.358;2023-03-23T02:47:07;90966.97;;;4.18;100.00
6395;BME280;3230;42.588;23.358;2023-03-23T02:49:36;90970.69;;;4.22;100.00
6395;BME280;3230;42.588;23.358;2023-03-23T02:52:11;90968.88;;;4.22;100.00
6395;BME280;3230;42.588;23.358;2023-03-23T02:54:42;90971.00;;;4.25;100.00
6395;BME280;3230;42.588;23.358;2023-03-23T02:57:09;90973.13;;;4.28;100.00
6395;BME280;3230;42.588;23.358;2023-03-23T02:59:35;90983.34;;;4.35;100.00
6395;BME280;3230;42.588;23.358;2023-03-23T03:11:28;91001.31;;;4.59;100.00
6395;BME280;3230;42.588;23.358;2023-03-23T03:16:08;90989.03;;;4.71;100.00
6395;BME280;3230;42.588;23.358;2023-03-23T03:18:42;90990.47;;;4.62;100.00
6395;BME280;3230;42.588;23.358;2023-03-23T03:21:12;91005.25;;;4.61;100.00
6395;BME280;3230;42.588;23.358;2023-03-23T03:23:40;91006.81;;;4.62;100.00
6395;BME280;3230;42.588;23.358;2023-03-23T03:26:10;91008.28;;;4.53;100.00
6395;BME280;3230;42.588;23.358;2023-03-23T03:28:37;91004.56;;;4.49;100.00
6395;BME280;3230;42.588;23.358;2023-03-23T03:31:04;91012.84;;;4.46;100.00
6395;BME280;3230;42.588;23.358;2023-03-23T03:33:31;91011.56;;;4.48;100.00
6395;BME280;3230;42.588;23.358;2023-03-23T03:36:00;90998.28;;;4.45;100.00
6395;BME280;3230;42.588;23.358;2023-03-23T03:38:27;91004.03;;;4.47;100.00
6395;BME280;3230;42.588;23.358;2023-03-23T03:40:53;91004.56;;;4.32;100.00
6395;BME280;3230;42.588;23.358;2023-03-23T03:43:19;91005.06;;;4.29;100.00
6395;BME280;3230;42.588;23.358;2023-03-23T03:45:44;90989.38;;;4.24;100.00
6395;BME280;3230;42.588;23.358;2023-03-23T03:48:10;91000.31;;;4.26;100.00
6395;BME280;3230;42.588;23.358;2023-03-23T03:50:36;91001.66;;;4.28;100.00
6395;BME280;3230;42.588;23.358;2023-03-23T03:53:02;90993.09;;;4.28;100.00
6395;BME280;3230;42.588;23.358;2023-03-23T03:55:28;90999.84;;;4.29;100.00
6395;BME280;3230;42.588;23.358;2023-03-23T03:57:54;91001.34;;;4.25;100.00
6395;BME280;3230;42.588;23.358;2023-03-23T04:00:20;91007.53;;;4.24;100.00
6395;BME280;3230;42.588;23.358;2023-03-23T04:02:48;91001.34;;;4.25;100.00
6395;BME280;3230;42.588;23.358;2023-03-23T04:05:19;90999.31;;;4.27;100.00
6395;BME280;3230;42.588;23.358;2023-03-23T04:07:45;90997.72;;;4.26;100.00
6395;BME280;3230;42.588;23.358;2023-03-23T04:10:15;91000.81;;;4.23;100.00
6395;BME280;3230;42.588;23.358;2023-03-23T04:12:40;90994.19;;;4.32;100.00
6395;BME280;3230;42.588;23.358;2023-03-23T04:15:06;90996.00;;;4.31;100.00
6395;BME280;3230;42.588;23.358;2023-03-23T04:17:33;90994.66;;;4.29;100.00
6395;BME280;3230;42.588;23.358;2023-03-23T04:19:59;90997.91;;;4.36;100.00
6395;BME280;3230;42.588;23.358;2023-03-23T04:22:26;90990.97;;;4.25;100.00
6395;BME280;3230;42.588;23.358;2023-03-23T04:24:58;90989.81;;;4.32;100.00
6395;BME280;3230;42.588;23.358;2023-03-23T04:27:26;90998.84;;;4.30;100.00
6395;BME280;3230;42.588;23.358;2023-03-23T04:29:54;91003.16;;;4.24;100.00
6395;BME280;3230;42.588;23.358;2023-03-23T04:32:20;91003.63;;;4.38;100.00
6395;BME280;3230;42.588;23.358;2023-03-23T04:34:46;91006.78;;;4.40;100.00
6395;BME280;3230;42.588;23.358;2023-03-23T04:37:11;91007.31;;;4.42;100.00
6395;BME280;3230;42.588;23.358;2023-03-23T04:39:38;91009.34;;;4.57;100.00
6395;BME280;3230;42.588;23.358;2023-03-23T04:42:05;91010.94;;;4.58;100.00
6395;BME280;3230;42.588;23.358;2023-03-23T04:44:30;91010.22;;;4.63;100.00
6395;BME280;3230;42.588;23.358;2023-03-23T04:47:00;91014.94;;;4.66;100.00
6395;BME280;3230;42.588;23.358;2023-03-23T04:49:26;91016.88;;;4.76;100.00
6395;BME280;3230;42.588;23.358;2023-03-23T04:51:52;91019.84;;;4.85;100.00
6395;BME280;3230;42.588;23.358;2023-03-23T04:54:17;91010.94;;;4.97;100.00
6395;BME280;3230;42.588;23.358;2023-03-23T04:56:43;91026.16;;;4.89;100.00
6395;BME280;3230;42.588;23.358;2023-03-23T04:59:08;91027.09;;;5.00;100.00
6395;BME280;3230;42.588;23.358;2023-03-23T05:01:34;91027.31;;;4.98;100.00
6395;BME280;3230;42.588;23.358;2023-03-23T05:04:03;91026.06;;;5.01;100.00
6395;BME280;3230;42.588;23.358;2023-03-23T05:06:29;91022.00;;;5.10;100.00
6395;BME280;3230;42.588;23.358;2023-03-23T05:08:54;91028.69;;;5.23;100.00
6395;BME280;3230;42.588;23.358;2023-03-23T05:11:20;91033.94;;;5.28;100.00
6395;BME280;3230;42.588;23.358;2023-03-23T05:13:46;91026.69;;;5.30;100.00
6395;BME280;3230;42.588;23.358;2023-03-23T05:16:11;91033.53;;;5.36;100.00
6395;BME280;3230;42.588;23.358;2023-03-23T05:18:37;91033.13;;;5.44;100.00
6395;BME280;3230;42.588;23.358;2023-03-23T05:21:03;91041.63;;;5.62;100.00
6395;BME280;3230;42.588;23.358;2023-03-23T05:23:29;91035.19;;;5.70;100.00
6395;BME280;3230;42.588;23.358;2023-03-23T05:25:57;91037.19;;;5.85;100.00
6395;BME280;3230;42.588;23.358;2023-03-23T05:28:26;91038.41;;;5.99;100.00
6395;BME280;3230;42.588;23.358;2023-03-23T05:30:52;91038.50;;;6.10;100.00
6395;BME280;3230;42.588;23.358;2023-03-23T05:33:19;91043.06;;;6.24;100.00
6395;BME280;3230;42.588;23.358;2023-03-23T05:35:46;91060.56;;;6.34;100.00
6395;BME280;3230;42.588;23.358;2023-03-23T05:38:12;91058.13;;;6.50;100.00
6395;BME280;3230;42.588;23.358;2023-03-23T05:40:37;91060.84;;;6.65;100.00
6395;BME280;3230;42.588;23.358;2023-03-23T05:43:03;91069.47;;;6.71;100.00
6395;BME280;3230;42.588;23.358;2023-03-23T05:45:28;91069.56;;;6.81;100.00
6395;BME280;3230;42.588;23.358;2023-03-23T05:47:54;91069.13;;;6.95;100.00
6395;BME280;3230;42.588;23.358;2023-03-23T05:50:19;91068.22;;;7.11;100.00
6395;BME280;3230;42.588;23.358;2023-03-23T05:52:45;91065.47;;;7.28;100.00
6395;BME280;3230;42.588;23.358;2023-03-23T05:55:10;91065.50;;;7.39;100.00
6395;BME280;3230;42.588;23.358;2023-03-23T05:57:36;91071.31;;;7.56;100.00
6395;BME280;3230;42.588;23.358;2023-03-23T06:00:03;91073.72;;;7.73;100.00
6395;BME280;3230;42.588;23.358;2023-03-23T06:02:36;91075.66;;;7.93;100.00
6395;BME280;3230;42.588;23.358;2023-03-23T06:05:02;91077.78;;;8.17;100.00
6395;BME280;3230;42.588;23.358;2023-03-23T06:07:27;91076.56;;;8.45;100.00
6395;BME280;3230;42.588;23.358;2023-03-23T06:09:53;91086.03;;;8.77;99.07
6395;BME280;3230;42.588;23.358;2023-03-23T06:12:19;91094.66;;;9.24;99.66
6395;BME280;3230;42.588;23.358;2023-03-23T06:14:47;91097.47;;;9.59;94.81
6395;BME280;3230;42.588;23.358;2023-03-23T06:17:14;91105.44;;;10.04;91.40
6395;BME280;3230;42.588;23.358;2023-03-23T06:19:41;91111.41;;;10.20;90.19
6395;BME280;3230;42.588;23.358;2023-03-23T06:22:07;91109.22;;;10.48;87.69
6395;BME280;3230;42.588;23.358;2023-03-23T06:24:32;91107.19;;;10.74;88.13
6395;BME280;3230;42.588;23.358;2023-03-23T06:26:58;91110.00;;;11.28;82.15
6395;BME280;3230;42.588;23.358;2023-03-23T06:29:24;91117.97;;;11.71;77.86
6395;BME280;3230;42.588;23.358;2023-03-23T06:31:53;91108.38;;;11.86;75.78
6395;BME280;3230;42.588;23.358;2023-03-23T06:34:20;91120.22;;;12.56;73.60
6395;BME280;3230;42.588;23.358;2023-03-23T06:36:45;91121.22;;;12.79;69.27
6395;BME280;3230;42.588;23.358;2023-03-23T06:39:11;91110.34;;;12.86;70.00
6395;BME280;3230;42.588;23.358;2023-03-23T06:41:37;91115.56;;;13.43;65.72
6395;BME280;3230;42.588;23.358;2023-03-23T06:44:03;91112.13;;;13.09;69.87
6395;BME280;3230;42.588;23.358;2023-03-23T06:46:28;91115.16;;;13.17;64.43
6395;BME280;3230;42.588;23.358;2023-03-23T06:48:54;91126.00;;;12.96;62.74
6395;BME280;3230;42.588;23.358;2023-03-23T06:51:20;91124.63;;;13.84;58.70
6395;BME280;3230;42.588;23.358;2023-03-23T06:53:46;91135.59;;;14.19;56.24
6395;BME280;3230;42.588;23.358;2023-03-23T06:56:11;91124.81;;;14.71;57.67
6395;BME280;3230;42.588;23.358;2023-03-23T06:58:38;91134.41;;;15.40;52.66
6395;BME280;3230;42.588;23.358;2023-03-23T07:01:04;91124.78;;;15.90;51.87
6395;BME280;3230;42.588;23.358;2023-03-23T07:03:30;91123.31;;;16.06;52.85
6395;BME280;3230;42.588;23.358;2023-03-23T07:05:56;91118.78;;;17.14;48.34
6395;BME280;3230;42.588;23.358;2023-03-23T07:08:22;91121.25;;;18.88;41.85
6395;BME280;3230;42.588;23.358;2023-03-23T07:10:51;91122.06;;;20.06;38.89
6395;BME280;3230;42.588;23.358;2023-03-23T07:13:17;91112.69;;;21.20;36.47
6395;BME280;3230;42.588;23.358;2023-03-23T07:15:43;91116.97;;;22.23;33.38
6395;BME280;3230;42.588;23.358;2023-03-23T07:18:09;91116.38;;;22.77;31.69
6395;BME280;3230;42.588;23.358;2023-03-23T07:20:35;91113.53;;;23.57;32.81
6395;BME280;3230;42.588;23.358;2023-03-23T07:23:02;91116.47;;;23.33;32.53
6395;BME280;3230;42.588;23.358;2023-03-23T07:25:31;91106.16;;;23.51;30.55
6395;BME280;3230;42.588;23.358;2023-03-23T07:27:58;91110.59;;;24.95;29.13
6395;BME280;3230;42.588;23.358;2023-03-23T07:30:24;91104.59;;;26.27;27.72
6395;BME280;3230;42.588;23.358;2023-03-23T07:32:49;91103.16;;;25.38;29.12
6395;BME280;3230;42.588;23.358;2023-03-23T07:35:16;91115.03;;;26.32;26.59
6395;BME280;3230;42.588;23.358;2023-03-23T07:37:41;91113.72;;;26.60;24.85
6395;BME280;3230;42.588;23.358;2023-03-23T07:40:07;91103.34;;;26.17;25.52
6395;BME280;3230;42.588;23.358;2023-03-23T07:42:34;91117.56;;;26.59;25.79
6395;BME280;3230;42.588;23.358;2023-03-23T07:44:59;91115.25;;;26.20;26.37
6395;BME280;3230;42.588;23.358;2023-03-23T07:47:25;91117.72;;;25.98;25.54
6395;BME280;3230;42.588;23.358;2023-03-23T07:49:51;91115.53;;;24.93;27.68
6395;BME280;3230;42.588;23.358;2023-03-23T07:52:16;91124.88;;;24.09;28.34
6395;BME280;3230;42.588;23.358;2023-03-23T07:54:42;91128.41;;;24.37;27.74
6395;BME280;3230;42.588;23.358;2023-03-23T07:57:08;91125.28;;;25.31;26.87
6395;BME280;3230;42.588;23.358;2023-03-23T07:59:33;91128.06;;;25.65;26.64
6395;BME280;3230;42.588;23.358;2023-03-23T08:01:59;91127.50;;;22.79;28.77
6395;BME280;3230;42.588;23.358;2023-03-23T08:04:24;91122.72;;;20.03;33.79
6395;BME280;3230;42.588;23.358;2023-03-23T08:06:50;91124.34;;;20.66;33.35
6395;BME280;3230;42.588;23.358;2023-03-23T08:09:16;91119.56;;;22.35;31.61
6395;BME280;3230;42.588;23.358;2023-03-23T08:11:41;91138.22;;;22.19;29.62
6395;BME280;3230;42.588;23.358;2023-03-23T08:14:06;91121.66;;;19.07;35.02
6395;BME280;3230;42.588;23.358;2023-03-23T08:16:32;91136.94;;;19.53;35.25
6395;BME280;3230;42.588;23.358;2023-03-23T08:19:01;91135.75;;;19.62;35.79
6395;BME280;3230;42.588;23.358;2023-03-23T08:21:27;91133.34;;;18.76;35.15
6395;BME280;3230;42.588;23.358;2023-03-23T08:23:53;91139.53;;;18.59;35.67
6395;BME280;3230;42.588;23.358;2023-03-23T08:26:18;91140.06;;;19.12;36.11
6395;BME280;3230;42.588;23.358;2023-03-23T08:28:44;91136.56;;;19.75;35.30
6395;BME280;3230;42.588;23.358;2023-03-23T08:31:11;91138.91;;;19.98;34.29
6395;BME280;3230;42.588;23.358;2023-03-23T08:33:38;91142.28;;;20.32;34.59
6395;BME280;3230;42.588;23.358;2023-03-23T08:36:04;91135.03;;;19.53;35.39
6395;BME280;3230;42.588;23.358;2023-03-23T08:38:30;91140.25;;;19.07;35.56
6395;BME280;3230;42.588;23.358;2023-03-23T08:41:03;91136.75;;;18.85;36.78
6395;BME280;3230;42.588;23.358;2023-03-23T08:43:31;91147.06;;;19.38;35.80
6395;BME280;3230;42.588;23.358;2023-03-23T08:45:58;91134.81;;;20.13;34.27
6395;BME280;3230;42.588;23.358;2023-03-23T08:48:23;91132.22;;;20.38;32.78
6395;BME280;3230;42.588;23.358;2023-03-23T08:50:49;91139.44;;;21.24;32.71
6395;BME280;3230;42.588;23.358;2023-03-23T08:53:15;91137.53;;;21.78;31.28
6395;BME280;3230;42.588;23.358;2023-03-23T08:55:41;91130.00;;;22.40;31.98
6395;BME280;3230;42.588;23.358;2023-03-23T08:58:08;91122.16;;;22.47;30.19
6395;BME280;3230;42.588;23.358;2023-03-23T09:00:33;91140.66;;;23.20;31.44
6395;BME280;3230;42.588;23.358;2023-03-23T09:02:59;91126.44;;;22.36;32.78
6395;BME280;3230;42.588;23.358;2023-03-23T09:05:27;91137.19;;;21.26;31.98
6395;BME280;3230;42.588;23.358;2023-03-23T09:07:55;91136.44;;;20.39;32.71
6395;BME280;3230;42.588;23.358;2023-03-23T09:10:25;91141.00;;;19.08;36.94
6395;BME280;3230;42.588;23.358;2023-03-23T09:12:52;91135.19;;;18.54;37.59
6395;BME280;3230;42.588;23.358;2023-03-23T09:15:17;91130.75;;;17.02;39.19
6395;BME280;3230;42.588;23.358;2023-03-23T09:17:49;91129.72;;;16.14;43.34
6395;BME280;3230;42.588;23.358;2023-03-23T09:20:17;91121.75;;;16.05;42.66
6395;BME280;3230;42.588;23.358;2023-03-23T09:22:47;91129.06;;;15.54;44.03
6395;BME280;3230;42.588;23.358;2023-03-23T09:25:14;91120.66;;;14.70;46.86
6395;BME280;3230;42.588;23.358;2023-03-23T09:27:42;91125.13;;;14.14;51.53
6395;BME280;3230;42.588;23.358;2023-03-23T09:30:12;91124.19;;;13.63;49.38
6395;BME280;3230;42.588;23.358;2023-03-23T09:32:38;91113.19;;;13.61;54.07
6395;BME280;3230;42.588;23.358;2023-03-23T09:35:06;91113.38;;;13.31;51.83
6395;BME280;3230;42.588;23.358;2023-03-23T09:37:34;91110.97;;;13.16;58.35
6395;BME280;3230;42.588;23.358;2023-03-23T09:40:04;91115.63;;;13.19;58.37
6395;BME280;3230;42.588;23.358;2023-03-23T09:50:31;91124.28;;;12.67;59.02
6395;BME280;3230;42.588;23.358;2023-03-23T09:53:10;91115.41;;;12.63;58.90
6395;BME280;3230;42.588;23.358;2023-03-23T09:55:38;91115.63;;;12.67;58.55
6395;BME280;3230;42.588;23.358;2023-03-23T09:58:27;91110.19;;;12.58;59.23
6395;BME280;3230;42.588;23.358;2023-03-23T10:01:12;91114.53;;;12.48;62.64
6395;BME280;3230;42.588;23.358;2023-03-23T10:03:41;91105.47;;;12.36;58.55
6395;BME280;3230;42.588;23.358;2023-03-23T10:06:11;91088.28;;;12.24;61.39
6395;BME280;3230;42.588;23.358;2023-03-23T10:08:47;91110.66;;;12.22;62.24
6395;BME280;3230;42.588;23.358;2023-03-23T10:17:13;91108.00;;;12.65;54.80
6395;BME280;3230;42.588;23.358;2023-03-23T10:20:10;91099.31;;;12.45;60.48
6395;BME280;3230;42.588;23.358;2023-03-23T10:22:46;91109.31;;;12.24;58.41
6395;BME280;3230;42.588;23.358;2023-03-23T10:25:19;91098.25;;;12.46;60.23
6395;BME280;3230;42.588;23.358;2023-03-23T10:30:35;91102.31;;;12.58;56.46
6395;BME280;3230;42.588;23.358;2023-03-23T10:38:20;91097.03;;;12.39;65.21
6395;BME280;3230;42.588;23.358;2023-03-23T10:40:56;91090.00;;;12.72;58.49
6395;BME280;3230;42.588;23.358;2023-03-23T10:43:23;91092.44;;;12.69;59.96
6395;BME280;3230;42.588;23.358;2023-03-23T10:45:57;91095.50;;;12.57;58.46
6395;BME280;3230;42.588;23.358;2023-03-23T10:48:37;91085.88;;;12.47;59.68
6395;BME280;3230;42.588;23.358;2023-03-23T10:51:05;91089.84;;;12.44;63.53
6395;BME280;3230;42.588;23.358;2023-03-23T10:53:37;91086.53;;;12.58;57.09
6395;BME280;3230;42.588;23.358;2023-03-23T10:56:03;91094.59;;;12.67;61.22
6395;BME280;3230;42.588;23.358;2023-03-23T10:58:34;91090.81;;;12.54;57.82
6395;BME280;3230;42.588;23.358;2023-03-23T11:01:03;91086.25;;;12.78;60.90
6395;BME280;3230;42.588;23.358;2023-03-23T11:06:09;91093.38;;;12.97;60.12
6395;BME280;3230;42.588;23.358;2023-03-23T11:08:46;91094.00;;;12.89;58.40
6395;BME280;3230;42.588;23.358;2023-03-23T11:11:25;91083.91;;;12.39;62.38
6395;BME280;3230;42.588;23.358;2023-03-23T11:14:12;91078.00;;;12.66;61.77
6395;BME280;3230;42.588;23.358;2023-03-23T11:16:44;91083.41;;;12.94;59.85
6395;BME280;3230;42.588;23.358;2023-03-23T11:19:15;91080.13;;;12.83;59.79
6395;BME280;3230;42.588;23.358;2023-03-23T11:21:46;91087.59;;;12.76;62.24
6395;BME280;3230;42.588;23.358;2023-03-23T11:24:13;91070.72;;;12.63;59.67
6395;BME280;3230;42.588;23.358;2023-03-23T11:26:38;91069.75;;;12.92;59.38
6395;BME280;3230;42.588;23.358;2023-03-23T11:29:09;91071.72;;;13.00;56.79
6395;BME280;3230;42.588;23.358;2023-03-23T11:31:40;91071.25;;;12.60;57.83
6395;BME280;3230;42.588;23.358;2023-03-23T11:34:19;91065.22;;;12.78;61.67
6395;BME280;3230;42.588;23.358;2023-03-23T11:36:51;91059.16;;;12.97;60.76
6395;BME280;3230;42.588;23.358;2023-03-23T11:39:30;91059.66;;;12.99;59.84
6395;BME280;3230;42.588;23.358;2023-03-23T11:42:01;91058.81;;;12.85;59.97
6395;BME280;3230;42.588;23.358;2023-03-23T11:44:39;91051.00;;;12.99;59.41
6395;BME280;3230;42.588;23.358;2023-03-23T11:53:09;91052.25;;;13.01;58.73
6395;BME280;3230;42.588;23.358;2023-03-23T11:55:55;91047.72;;;13.07;58.10
6395;BME280;3230;42.588;23.358;2023-03-23T11:58:22;91042.72;;;13.05;55.28
6395;BME280;3230;42.588;23.358;2023-03-23T12:20:37;91030.28;;;13.11;59.91
6395;BME280;3230;42.588;23.358;2023-03-23T12:23:11;91031.03;;;13.11;57.34
6395;BME280;3230;42.588;23.358;2023-03-23T12:25:54;91016.28;;;12.96;56.02
6395;BME280;3230;42.588;23.358;2023-03-23T12:28:30;91029.44;;;12.96;55.43
6395;BME280;3230;42.588;23.358;2023-03-23T12:31:21;91035.00;;;12.95;54.76
6395;BME280;3230;42.588;23.358;2023-03-23T12:34:10;91033.63;;;13.31;55.67
6395;BME280;3230;42.588;23.358;2023-03-23T12:44:36;91034.28;;;13.69;53.87
6395;BME280;3230;42.588;23.358;2023-03-23T12:49:38;91029.19;;;13.59;56.13
6395;BME280;3230;42.588;23.358;2023-03-23T12:54:42;91032.63;;;13.73;54.52
6395;BME280;3230;42.588;23.358;2023-03-23T12:57:16;91027.25;;;13.65;55.36
6395;BME280;3230;42.588;23.358;2023-03-23T13:02:21;91033.00;;;13.53;53.66
6395;BME280;3230;42.588;23.358;2023-03-23T13:05:00;91025.59;;;13.55;53.33
6395;BME280;3230;42.588;23.358;2023-03-23T13:07:33;91020.03;;;13.42;51.51
6395;BME280;3230;42.588;23.358;2023-03-23T13:12:29;91015.56;;;13.57;55.49
6395;BME280;3230;42.588;23.358;2023-03-23T13:15:24;91020.63;;;13.67;52.95
6395;BME280;3230;42.588;23.358;2023-03-23T13:18:19;91014.50;;;13.58;53.59
6395;BME280;3230;42.588;23.358;2023-03-23T13:20:58;91014.72;;;13.28;54.96
6395;BME280;3230;42.588;23.358;2023-03-23T13:23:38;91011.06;;;13.57;53.98
6395;BME280;3230;42.588;23.358;2023-03-23T13:26:12;91018.50;;;13.69;52.57
6395;BME280;3230;42.588;23.358;2023-03-23T13:31:31;91016.34;;;13.57;53.95
6395;BME280;3230;42.588;23.358;2023-03-23T13:34:03;91014.31;;;13.54;54.71
6395;BME280;3230;42.588;23.358;2023-03-23T13:38:56;91009.25;;;13.58;54.18
6395;BME280;3230;42.588;23.358;2023-03-23T13:41:23;91004.97;;;13.29;53.88
6395;BME280;3230;42.588;23.358;2023-03-23T13:43:48;91002.97;;;13.40;55.22
6395;BME280;3230;42.588;23.358;2023-03-23T13:46:28;91014.78;;;13.42;54.32
6395;BME280;3230;42.588;23.358;2023-03-23T13:49:17;91011.34;;;13.42;53.88
6395;BME280;3230;42.588;23.358;2023-03-23T13:57:01;91004.03;;;13.53;55.16
6395;BME280;3230;42.588;23.358;2023-03-23T13:59:32;91004.84;;;13.67;54.18
6395;BME280;3230;42.588;23.358;2023-03-23T14:02:27;90998.97;;;13.56;55.55
6395;BME280;3230;42.588;23.358;2023-03-23T14:04:54;90990.44;;;13.32;53.78
6395;BME280;3230;42.588;23.358;2023-03-23T14:07:20;90999.47;;;13.45;53.83
6395;BME280;3230;42.588;23.358;2023-03-23T14:09:45;90996.69;;;13.36;55.61
6395;BME280;3230;42.588;23.358;2023-03-23T14:12:26;91000.53;;;13.43;55.45
6395;BME280;3230;42.588;23.358;2023-03-23T14:14:59;90996.16;;;13.39;56.74
6395;BME280;3230;42.588;23.358;2023-03-23T14:17:31;90996.03;;;13.44;57.07
6395;BME280;3230;42.588;23.358;2023-03-23T14:19:59;90994.25;;;13.25;57.53
6395;BME280;3230;42.588;23.358;2023-03-23T14:22:27;90983.69;;;13.11;57.62
6395;BME280;3230;42.588;23.358;2023-03-23T14:25:00;90976.69;;;13.07;55.79
6395;BME280;3230;42.588;23.358;2023-03-23T14:27:27;90981.84;;;13.12;56.91
6395;BME280;3230;42.588;23.358;2023-03-23T14:30:00;90988.03;;;13.21;59.08
6395;BME280;3230;42.588;23.358;2023-03-23T14:32:28;90989.00;;;13.25;57.85
6395;BME280;3230;42.588;23.358;2023-03-23T14:34:54;90984.16;;;13.47;59.21
6395;BME280;3230;42.588;23.358;2023-03-23T14:37:21;90997.03;;;13.48;58.04
6395;BME280;3230;42.588;23.358;2023-03-23T14:39:53;90985.22;;;13.46;58.94
6395;BME280;3230;42.588;23.358;2023-03-23T14:42:26;90984.56;;;13.40;58.86
6395;BME280;3230;42.588;23.358;2023-03-23T14:44:53;90982.56;;;13.18;59.23
6395;BME280;3230;42.588;23.358;2023-03-23T14:47:24;90985.25;;;12.66;61.09
6395;BME280;3230;42.588;23.358;2023-03-23T14:49:56;90984.78;;;12.77;60.90
6395;BME280;3230;42.588;23.358;2023-03-23T14:52:25;90985.06;;;12.76;60.44
6395;BME280;3230;42.588;23.358;2023-03-23T14:54:51;90981.34;;;12.63;59.58
6395;BME280;3230;42.588;23.358;2023-03-23T14:57:29;90979.03;;;12.75;58.94
6395;BME280;3230;42.588;23.358;2023-03-23T14:59:55;90976.53;;;12.84;57.33
6395;BME280;3230;42.588;23.358;2023-03-23T15:02:35;90971.09;;;12.94;60.11
6395;BME280;3230;42.588;23.358;2023-03-23T15:05:10;90986.44;;;13.20;58.68